Date,TemperatureHighF,TemperatureAvgF,TemperatureLowF,DewpointHighF,DewpointAvgF,DewpointLowF,HumidityHigh,HumidityAvg,HumidityLow,PressureMaxIn,PressureMinIn,WindSpeedMaxMPH,WindSpeedAvgMPH,GustSpeedMaxMPH,PrecipitationSumIn
2012-1-1,63.1,45.4,34.9,24.0,14.5,10.0,47,30,13,30.44,30.32,5,2,0,0.00
2012-1-2,58.0,42.6,28.0,23.0,19.5,16.0,70,42,24,30.47,30.38,9,2,0,0.00
2012-1-3,58.9,39.8,26.7,29.0,20.1,16.0,69,49,21,30.46,30.34,4,1,0,0.00
2012-1-4,55.7,42.0,31.2,18.0,15.0,11.0,53,35,17,30.49,30.39,10,2,0,0.00
2012-1-5,56.5,38.0,26.9,23.0,16.0,11.0,70,45,19,30.42,30.20,4,1,0,0.00
2012-1-6,56.7,35.9,24.3,26.0,20.1,17.0,79,57,23,30.20,30.09,5,0,0,0.00
2012-1-7,49.2,34.5,21.6,25.0,20.4,14.0,87,60,36,30.09,29.99,6,1,0,0.00
2012-1-8,40.6,33.4,27.9,24.0,12.9,6.0,75,45,29,30.22,30.00,13,4,0,0.00
2012-1-9,49.6,34.0,23.0,20.0,13.2,6.0,69,44,24,30.39,30.22,8,1,0,0.00
2012-1-10,54.9,37.8,26.6,26.0,22.1,19.0,78,57,31,30.31,30.12,3,1,0,0.00
2012-1-11,52.6,37.6,23.5,24.0,14.6,-1.0,82,44,20,30.17,30.06,4,1,0,0.00
2012-1-12,41.9,32.0,27.2,5.0,0.2,-8.0,33,26,12,30.23,30.12,7,2,0,0.00
2012-1-13,51.7,34.2,24.9,9.0,0.3,-8.0,48,25,12,30.40,30.24,5,1,0,0.00
2012-1-14,53.8,38.6,24.7,19.0,7.6,-7.0,66,31,16,30.40,30.23,5,1,0,0.00
2012-1-15,44.3,34.3,26.1,31.0,19.0,10.0,92,57,28,30.23,30.10,6,1,0,0.00
2012-1-16,35.0,32.5,30.9,32.0,30.6,29.0,94,93,89,30.16,29.96,10,1,0,0.06
2012-1-17,41.3,33.7,25.7,31.0,28.2,24.0,92,81,54,30.36,30.16,6,1,0,0.36
2012-1-18,47.2,30.7,17.7,25.0,19.4,15.0,90,68,29,30.46,30.32,4,1,0,0.12
2012-1-19,54.4,35.2,22.9,26.0,21.3,18.0,83,62,30,30.32,30.08,4,1,0,0.00
2012-1-20,54.1,33.8,20.1,24.0,18.9,12.0,86,61,23,30.19,30.07,5,1,0,0.00
2012-1-21,40.7,32.0,24.8,31.0,23.2,17.0,92,71,44,30.15,29.73,11,2,0,0.02
2012-1-22,36.5,27.7,15.4,25.0,19.2,11.0,83,71,53,30.26,29.98,3,0,0,0.08
2012-1-23,38.8,28.1,16.0,28.0,19.1,11.0,92,72,32,30.27,30.03,6,1,0,0.01
2012-1-24,29.3,26.7,23.9,27.0,24.2,21.0,92,90,87,30.04,29.99,2,0,0,0.00
2012-1-27,41.5,35.5,31.4,17.0,11.4,6.0,45,37,32,30.30,30.18,11,3,0,0.00
2012-1-28,43.3,34.3,26.6,12.0,6.0,2.0,43,31,18,30.48,30.28,13,3,0,0.00
2012-1-29,56.1,40.1,27.5,16.0,7.4,0.0,61,28,14,30.48,30.21,9,1,0,0.00
2012-1-30,51.3,41.2,27.0,22.0,21.0,13.0,76,48,30,30.21,30.05,9,2,0,0.00
2012-1-31,50.3,36.0,24.9,23.0,19.5,15.0,78,56,27,30.29,30.08,9,1,0,0.00
2012-2-1,47.4,34.4,24.4,26.0,20.2,18.0,79,59,33,30.30,30.07,6,1,0,0.00
2012-2-2,39.2,28.4,20.4,28.0,21.8,17.0,90,77,49,30.08,29.92,6,1,0,0.00
2012-2-3,38.6,29.2,20.2,26.0,21.6,17.0,92,75,49,30.25,30.09,6,1,0,0.08
2012-2-4,42.6,32.6,25.7,26.0,22.3,20.0,84,68,45,30.24,30.17,7,2,0,0.00
2012-2-5,46.7,33.9,27.2,26.0,21.9,16.0,82,64,34,30.21,30.09,6,1,0,0.00
2012-2-6,45.2,33.6,23.3,25.0,20.3,13.0,86,61,33,30.17,30.08,6,1,0,0.00
2012-2-7,44.1,33.9,27.5,21.0,18.2,13.0,70,54,31,30.20,30.14,10,2,0,0.00
2012-2-8,53.1,41.2,31.4,29.0,23.3,18.0,78,50,36,30.22,30.13,5,1,0,0.00
2012-2-9,57.1,41.4,28.4,26.0,23.1,19.0,84,52,26,30.24,30.13,5,1,0,0.00
2012-2-10,56.0,39.8,28.8,27.0,23.3,21.0,75,55,28,30.23,30.14,6,1,0,0.00
2012-2-11,53.7,40.9,27.3,28.0,22.0,19.0,82,51,28,30.15,29.83,12,2,0,0.00
2012-2-12,41.9,36.3,32.0,32.0,26.3,21.0,93,70,44,29.91,29.74,5,1,0,0.01
2012-2-13,33.6,32.3,31.0,31.0,29.9,29.0,94,91,86,29.98,29.84,12,1,0,0.02
2012-2-14,33.8,29.6,26.3,31.0,26.6,24.0,93,88,69,30.03,29.77,10,2,0,0.12
2012-2-15,31.8,27.1,18.5,27.0,24.2,16.0,92,89,81,30.13,30.02,4,1,0,0.01
2012-2-16,41.4,30.8,18.2,27.0,21.1,15.0,90,70,47,30.24,30.13,5,2,0,0.36
2012-2-17,48.5,34.5,23.9,23.0,19.5,16.0,72,56,30,30.18,30.06,8,2,0,0.17
2012-2-18,47.6,32.4,17.1,25.0,17.4,10.0,82,58,28,30.23,30.07,5,1,0,0.00
2012-2-19,37.7,30.6,20.0,30.0,25.3,17.0,90,81,66,30.08,29.85,5,1,0,0.07
2012-2-20,44.5,27.7,11.6,18.0,13.3,8.0,88,61,23,30.30,30.08,5,1,0,0.02
2012-2-21,51.3,33.4,19.0,20.0,13.2,1.0,77,50,18,30.31,30.23,5,1,0,0.00
2012-2-22,54.6,39.0,25.1,29.0,24.9,18.0,83,60,35,30.28,30.00,6,1,0,0.00
2012-2-23,56.8,39.3,24.0,27.0,20.2,5.0,88,53,16,30.07,29.92,7,1,0,0.00
2012-2-24,52.1,37.7,27.4,17.0,9.6,5.0,64,33,18,30.22,30.04,16,2,0,0.00
2012-2-25,55.9,38.7,22.0,21.0,17.5,15.0,83,48,22,30.22,30.01,11,2,0,0.00
2012-2-26,52.5,36.8,23.7,21.0,17.0,2.0,79,51,17,30.02,29.91,5,1,0,0.00
2012-2-27,49.4,39.3,26.6,31.0,25.6,21.0,84,60,37,29.96,29.68,15,4,0,0.00
2012-2-28,32.0,26.9,16.0,28.0,23.3,13.0,91,86,77,30.31,29.66,13,3,0,0.06
2012-2-29,43.8,27.7,9.2,23.0,15.3,6.0,87,63,32,30.40,30.21,7,2,0,0.10
2012-3-1,44.5,31.7,21.2,24.0,20.4,17.0,83,64,41,30.20,29.92,7,1,0,0.00
2012-3-2,36.5,30.1,20.5,22.0,2.6,-9.0,69,34,17,30.33,29.92,17,3,0,0.00
2012-3-3,50.2,34.7,25.4,17.0,5.3,-4.0,57,30,22,30.45,30.31,13,2,0,0.00
2012-3-4,56.9,43.2,30.5,20.0,17.1,13.0,64,37,20,30.38,30.20,13,2,0,0.00
2012-3-5,60.8,42.8,27.8,25.0,17.7,12.0,71,43,15,30.23,30.06,5,1,0,0.00
2012-3-6,55.9,40.8,25.2,22.0,17.4,10.0,79,46,16,30.05,29.49,18,5,0,0.00
2012-3-7,41.8,28.8,20.9,20.0,13.3,8.0,75,53,35,30.09,29.48,8,2,0,0.00
2012-3-8,49.3,37.5,20.3,23.0,19.8,14.0,80,52,29,30.43,30.10,10,2,0,0.00
2012-3-9,46.7,37.5,29.2,26.0,20.8,15.0,73,53,29,30.39,30.18,12,2,0,0.00
2012-3-10,51.5,37.5,26.9,27.0,22.9,18.0,78,58,36,30.18,30.01,8,2,0,0.00
2012-3-11,52.9,37.1,21.1,25.0,19.5,15.0,87,54,27,30.14,30.04,10,2,0,0.00
2012-3-12,58.6,40.3,23.0,22.0,13.4,4.0,77,41,12,30.16,30.05,9,2,0,0.00
2012-3-13,59.4,40.3,21.8,19.0,5.3,-14.0,71,33,5,30.13,30.03,11,2,0,0.00
2012-3-14,59.9,40.3,20.4,16.0,10.1,4.0,67,35,11,30.23,30.09,10,2,0,0.00
2012-3-15,63.4,45.4,28.3,20.0,15.0,6.0,60,35,13,30.23,30.06,6,2,0,0.00
2012-3-16,30.6,29.3,28.1,19.0,18.2,18.0,66,64,61,30.08,30.05,2,0,0,0.00
2012-3-17,52.6,46.4,36.5,37.0,27.8,19.0,90,52,29,29.69,29.53,23,5,0,0.16
2012-3-18,38.6,32.4,24.8,33.0,28.9,22.0,92,87,76,29.55,29.41,15,3,0,0.01
2012-3-25,56.8,50.2,44.0,28.0,24.3,21.0,52,37,25,29.90,29.87,6,2,0,0.00
2012-3-26,53.5,43.7,34.2,34.0,30.6,28.0,86,62,39,30.03,29.83,10,3,0,0.00
2012-3-27,59.8,41.8,28.6,28.0,23.6,13.0,87,55,21,30.11,30.00,6,1,0,0.00
2012-3-28,62.3,43.1,27.5,27.0,21.9,18.0,79,50,20,30.09,29.97,7,2,0,0.00
2012-3-29,61.7,42.6,29.5,26.0,22.9,18.0,75,52,20,30.03,29.97,7,2,0,0.00
2012-3-31,66.1,65.8,65.2,33.0,31.2,30.0,29,28,26,29.87,29.85,10,7,0,0.00
2012-4-5,48.6,47.4,46.1,17.0,15.5,14.0,29,28,27,29.87,29.86,2,1,0,0.00
2012-4-6,58.9,45.7,33.0,17.0,9.5,0.0,42,25,10,30.08,29.85,9,2,0,0.00
2012-4-7,64.4,48.9,33.8,14.0,5.9,-3.0,37,19,8,30.19,30.09,9,2,0,0.00
2012-4-8,69.0,52.6,37.6,23.0,16.4,7.0,47,26,13,30.15,30.02,7,1,0,0.00
2012-4-9,69.2,50.6,31.2,25.0,18.2,11.0,67,34,11,30.06,29.96,11,2,0,0.00
2012-4-10,68.9,51.9,36.7,25.0,19.0,15.0,51,30,15,30.00,29.82,8,2,0,0.00
2012-4-11,53.1,45.1,38.4,38.0,31.3,22.0,79,59,41,29.91,29.74,16,4,0,0.02
2012-4-12,52.7,41.8,36.2,31.0,23.5,6.0,81,53,16,30.00,29.86,12,3,0,0.01
2012-4-13,48.7,42.0,32.8,24.0,16.0,5.0,68,38,20,29.95,29.58,12,3,0,0.00
2012-4-14,40.6,28.1,25.5,30.0,25.2,20.0,93,89,44,30.05,29.50,12,3,0,0.01
2012-4-15,48.3,34.2,28.2,37.0,29.6,26.0,93,84,52,30.23,30.06,6,1,0,0.60
2012-4-16,60.7,43.5,24.8,33.0,26.6,22.0,88,57,25,30.30,30.16,7,1,0,0.00
2012-4-17,65.6,49.4,32.5,35.0,26.8,23.0,77,47,20,30.17,30.01,6,2,0,0.00
2012-4-18,68.1,52.3,33.1,36.0,26.5,22.0,76,42,21,30.03,29.89,13,2,0,0.00
2012-4-19,71.2,53.4,32.9,33.0,29.0,26.0,75,44,20,29.97,29.86,9,2,0,0.00
2012-4-20,74.6,59.0,46.1,33.0,27.7,24.0,56,33,15,30.00,29.89,17,2,0,0.00
2012-4-21,78.5,60.6,39.7,36.0,29.8,23.0,69,36,14,29.97,29.85,8,2,0,0.00
2012-4-22,79.9,61.1,43.7,39.0,29.6,15.0,60,36,9,29.93,29.85,5,1,0,0.00
2012-4-23,78.7,59.0,42.7,36.0,29.6,23.0,61,37,13,29.92,29.81,10,2,0,0.00
2012-4-24,73.4,56.8,39.7,34.0,25.9,9.0,75,38,9,29.94,29.84,12,2,0,0.00
2012-4-25,71.5,55.0,38.7,39.0,29.1,21.0,62,40,18,29.99,29.85,5,1,0,0.00
2012-4-26,54.5,45.5,33.9,40.0,33.7,22.0,94,67,28,29.95,29.70,14,2,0,0.61
2012-4-27,63.7,47.7,31.0,41.0,35.3,29.0,93,66,34,30.08,29.89,8,1,0,0.00
2012-4-28,67.7,53.3,39.8,35.0,29.5,24.0,81,46,21,29.91,29.71,9,2,0,0.00
2012-4-29,67.6,52.8,34.7,32.0,27.8,21.0,77,43,18,29.91,29.76,11,1,0,0.00
2012-4-30,70.7,55.2,36.4,34.0,27.8,21.0,71,40,16,29.96,29.82,10,1,0,0.00
2012-5-1,65.3,53.2,37.9,36.0,31.0,24.0,81,47,25,29.81,29.73,10,2,0,0.00
2012-5-2,64.8,54.8,41.8,35.0,30.7,26.0,61,41,26,29.84,29.73,9,2,0,0.00
2012-5-3,68.9,54.0,35.0,38.0,29.8,26.0,84,44,20,29.95,29.83,14,2,0,0.00
2012-5-4,69.9,56.5,36.2,34.0,27.5,21.0,75,37,18,29.93,29.87,11,2,0,0.00
2012-5-5,69.5,53.4,34.8,30.0,24.5,21.0,69,37,17,29.91,29.83,7,2,0,0.00
2012-5-6,64.5,51.0,35.7,27.0,21.2,15.0,63,36,15,29.91,29.87,5,2,0,0.00
2012-5-7,64.8,49.4,33.7,25.0,16.3,3.0,57,31,11,29.91,29.80,8,2,0,0.00
2012-5-8,64.8,49.2,32.1,37.0,23.3,10.0,59,38,20,29.96,29.87,8,2,0,0.00
2012-5-9,69.4,57.5,44.1,34.0,30.2,24.0,60,38,19,29.94,29.79,7,2,0,0.00
2012-5-10,75.5,57.2,37.5,39.0,30.2,23.0,76,41,15,29.84,29.70,12,2,0,0.00
2012-5-11,73.8,57.4,38.0,35.0,24.8,19.0,65,33,14,29.92,29.77,7,2,0,0.00
2012-5-12,76.7,57.3,37.8,29.0,21.2,15.0,51,29,10,30.02,29.92,6,1,0,0.00
2012-5-13,79.2,61.2,41.4,38.0,17.8,5.0,52,25,6,30.01,29.85,9,2,0,0.00
2012-5-14,76.1,60.6,39.0,30.0,22.0,9.0,56,26,10,29.96,29.87,15,2,0,0.00
2012-5-15,78.7,63.5,45.0,35.0,26.3,19.0,45,26,13,29.91,29.77,11,2,0,0.00
2012-5-16,76.9,61.8,44.7,34.0,23.8,12.0,57,27,10,29.82,29.72,16,3,0,0.00
2012-5-17,78.2,62.4,40.5,32.0,19.8,15.0,44,22,10,29.86,29.64,8,2,0,0.00
2012-5-18,69.6,61.2,42.9,31.0,22.3,11.0,37,24,13,29.70,29.51,26,4,0,0.00
2012-5-19,73.5,56.7,37.9,31.0,22.7,17.0,54,30,14,29.92,29.70,6,1,0,0.00
2012-5-20,80.7,61.8,40.0,28.0,22.8,15.0,53,26,9,29.95,29.85,10,1,0,0.00
2012-5-21,82.8,64.8,44.3,37.0,21.0,8.0,46,23,6,29.93,29.82,7,2,0,0.00
2012-5-22,82.1,64.2,42.0,37.0,20.5,8.0,56,23,9,29.85,29.66,15,2,0,0.00
2012-5-23,76.7,65.5,44.1,34.0,24.7,11.0,36,22,12,29.66,29.40,13,3,0,0.00
2012-5-24,73.5,62.1,44.1,40.0,35.9,31.0,66,40,24,29.52,29.41,10,3,0,0.00
2012-5-25,67.4,58.4,50.8,40.0,35.2,31.0,59,43,29,29.52,29.43,19,6,0,0.00
2012-5-26,56.6,48.2,32.8,37.0,21.3,5.0,79,40,13,29.89,29.50,15,4,0,0.00
2012-5-27,64.7,46.8,28.7,20.0,13.8,7.0,56,31,11,30.04,29.89,5,1,0,0.00
2012-5-28,73.4,55.8,32.9,21.0,15.2,2.0,50,24,6,30.01,29.90,14,1,0,0.00
2012-5-29,76.6,56.5,37.3,30.0,15.6,9.0,43,24,8,29.96,29.88,12,2,0,0.00
2012-5-30,79.6,61.4,37.8,29.0,15.5,3.0,44,21,6,29.94,29.80,7,1,0,0.00
2012-5-31,86.3,67.3,41.6,28.0,22.9,18.0,41,21,9,29.85,29.69,10,2,0,0.00
2012-6-1,88.6,70.3,49.0,41.0,24.9,18.0,42,22,8,29.74,29.62,9,2,0,0.00
2012-6-2,81.0,64.4,43.6,34.0,19.9,12.0,45,22,8,29.79,29.66,7,2,0,0.00
2012-6-3,81.6,62.3,43.0,34.0,20.2,11.0,45,25,7,29.83,29.76,10,2,0,0.00
2012-6-9,78.2,71.4,62.2,29.0,26.3,24.0,28,19,14,29.62,29.54,11,4,0,0.00
2012-6-10,78.4,63.4,42.7,36.0,31.5,27.0,56,32,20,29.81,29.60,12,1,0,0.00
2012-6-11,81.0,64.4,46.0,33.0,28.9,25.0,49,30,13,29.89,29.80,7,1,0,0.00
2012-6-12,84.4,67.4,45.8,36.0,20.4,5.0,44,21,5,29.90,29.75,7,1,0,0.00
2012-6-13,83.5,67.6,45.7,33.0,20.1,12.0,40,20,7,29.79,29.64,11,2,0,0.00
2012-6-14,80.1,63.5,43.1,33.0,19.8,6.0,50,23,6,29.75,29.68,7,1,0,0.00
2012-6-15,79.3,62.5,42.6,40.0,22.6,10.0,49,25,8,29.80,29.70,10,1,0,0.00
2012-6-16,83.8,67.1,45.2,34.0,24.4,13.0,40,23,7,29.89,29.78,6,1,0,0.00
2012-6-17,87.5,69.5,49.5,40.0,30.1,19.0,55,27,8,29.89,29.71,10,1,0,0.00
2012-6-18,86.0,69.5,47.4,38.0,25.0,11.0,47,23,6,29.75,29.59,14,3,0,0.00
2012-6-19,85.7,67.2,43.5,32.0,20.3,15.0,48,20,8,29.66,29.57,6,1,0,0.00
2012-6-20,90.5,70.4,47.5,33.0,21.5,17.0,41,19,7,29.75,29.64,7,1,0,0.00
2012-6-21,88.1,71.3,52.0,33.0,20.0,11.0,31,17,6,29.77,29.68,9,2,0,0.00
2012-6-22,85.4,70.7,50.2,39.0,29.1,23.0,49,24,11,29.70,29.59,13,3,0,0.00
2012-6-23,87.3,69.4,47.5,35.0,27.6,24.0,45,23,11,29.73,29.61,9,2,0,0.00
2012-6-24,56.9,55.2,54.1,27.0,26.7,26.0,35,33,31,29.75,29.74,1,0,0,0.00
2012-6-25,84.8,75.8,60.2,47.0,43.7,41.0,49,33,25,29.73,29.68,5,2,0,0.00
2012-6-26,85.4,70.0,53.0,48.0,43.6,39.0,60,41,20,29.75,29.62,10,2,0,0.00
2012-6-27,87.4,70.5,55.4,50.0,45.7,39.0,68,44,19,29.83,29.68,11,1,0,0.00
2012-6-28,88.0,70.8,55.4,52.0,46.0,41.0,72,44,22,29.91,29.81,9,1,0,0.00
2012-6-29,88.1,72.5,54.2,47.0,41.2,36.0,59,36,18,29.89,29.73,12,2,0,0.00
2012-6-30,88.6,71.8,51.2,40.0,33.0,28.0,51,27,14,29.79,29.66,6,1,0,0.00
2012-7-1,87.7,72.0,53.7,40.0,30.5,26.0,46,23,13,29.71,29.60,12,2,0,0.00
2012-7-2,87.5,71.8,56.3,42.0,35.6,29.0,41,28,19,29.74,29.62,9,1,0,0.00
2012-7-3,83.9,70.5,58.2,52.0,42.8,36.0,54,38,24,29.72,29.63,7,1,0,0.00
2012-7-4,70.3,64.1,58.7,55.0,51.0,42.0,81,64,45,29.78,29.68,4,1,0,0.01
2012-7-5,79.4,66.0,56.3,54.0,48.9,40.0,90,59,31,29.88,29.77,8,1,0,0.00
2012-7-6,85.5,70.9,55.4,45.0,38.6,33.0,58,35,17,29.90,29.76,8,1,0,0.00
2012-7-7,84.8,70.3,55.0,47.0,39.9,35.0,50,35,18,29.84,29.76,4,0,0,0.00
2012-7-8,85.1,67.6,54.7,55.0,46.2,39.0,74,49,22,29.89,29.80,8,1,0,0.10
2012-7-9,84.9,70.1,54.9,57.0,47.8,43.0,79,50,23,29.91,29.78,4,1,0,0.03
2012-7-10,90.0,74.1,56.9,48.0,43.6,36.0,67,38,16,29.83,29.68,11,1,0,0.00
2012-7-11,84.9,71.4,58.0,59.0,48.4,42.0,72,47,26,29.81,29.68,7,1,0,0.01
2012-7-12,74.0,63.9,56.9,62.0,54.2,45.0,92,73,48,29.84,29.74,3,0,0,0.31
2012-7-13,76.0,64.6,55.6,61.0,56.7,52.0,90,76,52,29.92,29.83,6,1,0,0.02
2012-7-14,69.8,60.5,54.0,60.0,56.6,52.0,95,87,65,29.95,29.84,5,0,0,1.28
2012-7-15,75.5,62.9,51.3,58.0,54.4,50.0,95,76,54,29.98,29.80,7,1,0,0.47
2012-7-16,75.9,62.8,51.5,59.0,52.2,43.0,95,72,31,29.88,29.76,10,1,0,0.06
2012-7-17,77.7,64.2,50.3,52.0,45.7,40.0,92,56,27,29.89,29.79,5,1,0,0.00
2012-7-18,82.6,65.7,48.2,47.0,41.9,35.0,81,48,21,29.94,29.81,4,1,0,0.00
2012-7-19,84.5,70.7,59.1,50.0,45.9,41.0,65,43,24,29.87,29.77,6,1,0,0.00
2012-7-20,83.3,68.3,59.9,55.0,50.3,46.0,71,55,27,29.91,29.79,7,1,0,0.01
2012-7-21,76.9,66.0,58.0,56.0,52.0,50.0,75,62,40,29.93,29.85,4,0,0,0.00
2012-7-23,61.8,61.7,61.4,58.0,57.8,57.0,88,87,86,29.88,29.86,0,0,0,0.10
2012-7-24,74.4,61.3,56.6,60.0,57.0,54.0,94,86,58,29.92,29.86,8,1,0,0.60
2012-7-25,78.4,66.6,56.9,60.0,56.4,54.0,94,72,44,29.95,29.79,6,1,0,0.01
2012-7-26,83.9,68.7,53.6,54.0,51.2,48.0,85,57,30,29.86,29.76,7,1,0,0.00
2012-7-27,81.5,70.6,58.3,56.0,52.5,49.0,78,55,32,29.86,29.76,4,1,0,0.00
2012-7-28,81.8,66.4,60.6,58.0,53.3,51.0,77,64,43,29.85,29.80,2,0,0,0.02
2012-8-11,77.6,69.6,61.6,59.0,52.9,50.0,66,56,41,29.74,29.60,3,0,0,0.01
2012-8-12,81.1,69.7,59.0,53.0,49.1,45.0,70,50,30,29.83,29.73,6,1,0,0.00
2012-8-13,88.5,72.0,56.5,54.0,47.5,44.0,76,45,23,29.85,29.73,15,1,0,0.00
2012-8-14,87.9,73.2,57.9,56.0,48.5,42.0,82,45,21,29.80,29.66,6,1,0,0.08
2012-8-15,86.7,68.6,53.9,58.0,51.9,45.0,90,60,27,29.78,29.68,5,1,0,0.00
2012-8-16,80.2,63.0,54.0,59.0,54.9,49.0,93,76,40,29.95,29.77,6,0,0,0.21
2012-8-17,75.8,64.9,56.6,60.0,57.4,55.0,94,78,56,29.95,29.84,4,0,0,0.00
2012-8-18,78.8,64.0,58.4,63.0,58.6,55.0,95,83,55,29.87,29.72,4,0,0,0.21
2012-8-19,82.3,67.5,54.1,62.0,56.2,52.0,93,70,40,29.86,29.77,5,1,0,0.00
2012-8-20,79.3,65.0,59.4,62.0,58.3,54.0,94,80,48,29.84,29.73,8,0,0,0.47
2012-8-21,76.5,64.5,58.8,62.0,57.8,52.0,94,80,56,29.87,29.80,5,0,0,0.03
2012-8-22,74.7,63.3,55.0,61.0,57.2,53.0,93,81,57,29.86,29.78,6,0,0,0.04
2012-8-23,70.9,60.6,55.5,59.0,55.8,51.0,95,85,59,29.85,29.76,6,1,0,1.49
2012-8-24,73.7,61.3,53.2,61.0,56.5,52.0,96,85,59,29.87,29.78,4,0,0,0.00
2012-8-25,80.3,61.3,52.3,60.0,54.5,50.0,93,81,38,29.84,29.75,6,1,0,0.50
2012-8-26,77.4,64.1,52.9,60.0,55.4,51.0,92,75,44,29.91,29.82,3,0,0,0.35
2012-8-27,80.8,67.3,56.4,59.0,55.0,51.0,89,67,38,29.94,29.84,8,1,0,0.00
2012-8-28,83.4,67.3,57.2,63.0,54.7,50.0,84,67,37,29.95,29.79,6,1,0,0.05
2012-8-29,82.9,67.6,54.6,58.0,51.8,48.0,89,62,31,29.88,29.74,4,0,0,0.00
2012-8-30,80.5,66.0,52.4,55.0,51.4,48.0,90,63,36,29.83,29.71,4,1,0,0.12
2012-8-31,78.7,66.2,56.5,58.0,54.2,51.0,87,67,44,29.83,29.77,7,1,0,0.00
2012-9-1,74.4,62.4,53.8,62.0,56.8,51.0,92,83,58,29.90,29.82,4,0,0,0.03
2012-9-2,80.0,66.4,57.3,60.0,54.6,50.0,89,68,40,29.92,29.82,7,1,0,0.00
2012-9-3,80.8,65.6,54.9,56.0,52.2,49.0,83,64,37,29.94,29.86,10,1,0,0.00
2012-9-4,78.7,60.9,52.9,60.0,54.8,50.0,92,81,49,29.96,29.88,9,0,0,0.21
2012-9-5,80.9,64.7,49.9,57.0,52.2,47.0,93,68,34,29.96,29.83,5,1,0,0.01
2012-9-6,79.8,66.4,52.9,57.0,53.7,49.0,87,66,41,29.86,29.77,7,1,0,0.00
2012-9-7,69.8,62.4,57.2,64.0,57.9,54.0,90,85,75,29.91,29.82,2,0,0,0.06
2012-9-8,78.9,66.1,54.8,55.0,49.5,41.0,83,58,26,29.98,29.85,9,1,0,0.00
2012-9-9,77.0,63.6,51.2,56.0,51.2,43.0,90,67,31,29.94,29.84,5,0,0,0.00
2012-9-10,73.6,61.4,53.0,57.0,54.2,51.0,92,78,46,29.91,29.81,5,1,0,0.04
2012-9-11,58.6,55.9,52.7,55.0,53.8,51.0,95,92,83,29.94,29.82,3,0,0,0.28
2012-9-12,71.1,57.5,52.2,57.0,53.0,49.0,95,86,55,30.00,29.89,7,1,0,0.28
2012-9-13,71.7,59.6,46.8,52.0,46.5,40.0,92,65,39,30.12,30.00,6,1,0,0.01
2012-9-14,69.2,57.7,48.2,41.0,37.5,32.0,72,49,27,30.16,30.05,15,1,0,0.00
2012-9-15,76.5,58.9,43.6,40.0,35.4,30.0,73,46,19,30.16,30.02,5,1,0,0.00
2012-9-16,77.2,59.1,44.0,47.0,36.8,31.0,74,49,21,30.07,29.96,5,1,0,0.00
2012-9-17,74.2,57.8,43.2,44.0,38.6,35.0,76,53,27,30.00,29.91,5,1,0,0.00
2012-9-18,80.0,61.1,42.7,41.0,36.8,31.0,82,47,19,30.05,29.95,5,1,0,0.00
2012-9-19,79.6,62.2,46.1,45.0,36.2,32.0,67,43,18,30.03,29.93,4,1,0,0.00
2012-9-20,81.0,63.3,45.6,44.0,36.6,31.0,70,42,20,29.99,29.88,6,1,0,0.00
2012-9-21,80.5,63.9,47.2,44.0,36.4,33.0,68,40,19,29.94,29.84,4,1,0,0.00
2012-9-22,79.4,62.0,48.9,48.0,37.8,32.0,64,44,18,29.97,29.90,6,1,0,0.00
2012-9-23,78.7,62.5,50.5,50.0,40.2,37.0,65,47,23,30.00,29.92,12,1,0,0.00
2012-9-24,74.4,61.3,47.6,45.0,38.7,34.0,74,46,26,29.96,29.81,6,1,0,0.00
2012-9-25,72.5,56.9,43.3,40.0,35.9,33.0,76,49,25,29.85,29.75,8,1,0,0.00
2012-9-26,72.4,55.8,41.6,39.0,35.3,33.0,72,50,26,29.96,29.84,4,1,0,0.00
2012-9-27,74.4,57.8,41.3,42.0,35.2,32.0,75,47,22,30.00,29.91,5,1,0,0.00
2012-9-28,73.0,59.3,45.6,40.0,36.5,33.0,68,45,25,29.96,29.84,6,1,0,0.00
2012-9-29,72.1,56.2,44.7,50.0,40.7,33.0,79,58,33,30.03,29.92,3,0,0,0.02
2012-9-30,75.8,58.8,42.6,42.0,31.1,21.0,77,41,13,30.08,29.98,7,1,0,0.00
2012-10-1,77.2,60.6,47.9,36.0,29.8,27.0,46,33,16,30.02,29.91,5,1,0,0.00
2012-10-2,79.9,60.4,42.7,40.0,30.6,28.0,60,37,15,29.96,29.84,4,1,0,0.00
2012-10-3,78.7,59.4,40.8,37.0,30.4,27.0,60,38,17,29.98,29.90,7,1,0,0.00
2012-10-4,73.1,57.3,38.7,39.0,32.8,31.0,75,44,22,30.03,29.94,7,1,0,0.00
2012-10-5,72.2,54.3,38.3,36.0,30.8,29.0,71,45,21,30.03,29.93,6,0,0,0.00
2012-10-6,70.1,53.5,40.4,39.0,32.0,29.0,67,47,23,29.97,29.85,5,1,0,0.00
2012-10-7,71.5,53.1,39.5,34.0,30.6,27.0,71,47,20,29.96,29.88,5,1,0,0.00
2012-10-8,69.9,51.6,37.4,39.0,34.4,30.0,78,55,30,29.98,29.89,9,1,0,0.00
2012-10-9,69.1,51.0,36.8,44.0,34.7,30.0,83,58,28,30.01,29.92,4,0,0,0.00
2012-10-10,69.0,52.3,35.9,44.0,35.6,31.0,87,57,31,30.03,29.90,9,1,0,0.00
2012-10-11,65.3,49.4,36.8,46.0,39.9,31.0,92,72,38,29.95,29.83,7,1,0,0.61
2012-10-12,46.4,41.2,35.5,44.0,37.7,33.0,94,87,73,30.12,29.83,4,1,0,0.62
2012-10-13,62.8,44.1,30.6,44.0,36.2,29.0,95,76,41,30.26,30.12,5,0,0,0.00
2012-10-14,65.2,53.8,40.7,40.0,36.6,34.0,80,54,34,30.20,30.07,13,2,0,0.00
2012-10-15,71.2,54.0,39.6,40.0,34.8,31.0,83,53,25,30.08,29.93,5,0,0,0.00
2012-10-16,72.9,53.6,37.8,40.0,32.7,26.0,77,50,18,29.97,29.81,4,0,0,0.00
2012-10-17,73.1,52.6,36.6,41.0,33.9,29.0,83,54,24,30.01,29.86,3,0,0,0.00
2012-10-18,71.3,52.4,37.4,34.0,25.6,15.0,72,40,15,30.08,30.00,3,1,0,0.00
2012-10-19,76.3,53.2,36.3,32.0,26.3,21.0,64,41,13,30.05,29.89,3,1,0,0.00
2012-10-20,67.0,49.5,34.4,38.0,30.1,25.0,72,51,26,29.91,29.81,6,1,0,0.00
2012-10-21,63.8,50.7,36.1,44.0,37.3,29.0,86,63,38,29.87,29.81,9,1,0,0.00
2012-10-22,62.2,51.8,44.8,46.0,42.6,38.0,93,73,46,29.88,29.81,9,2,0,0.00
2012-10-23,61.4,50.4,40.5,47.0,40.0,33.0,94,70,43,29.88,29.79,7,1,0,0.00
2012-10-24,59.9,46.4,30.7,34.0,26.6,15.0,87,51,20,30.02,29.82,11,2,0,0.00
2012-10-25,60.6,41.9,27.7,25.0,17.7,10.0,61,41,19,30.18,30.02,6,1,0,0.00
2012-10-26,49.7,40.1,32.0,16.0,9.5,2.0,49,30,17,30.20,30.13,12,2,0,0.00
2012-10-27,67.7,47.6,30.2,20.0,11.7,4.0,42,25,13,30.19,30.04,5,0,0,0.00
2012-10-28,68.5,49.4,33.4,27.0,17.7,14.0,49,31,13,30.13,30.02,3,0,0,0.00
2012-10-29,68.6,48.3,33.3,29.0,16.8,11.0,52,33,11,30.20,30.13,6,1,0,0.00
2012-10-30,69.2,47.1,31.6,27.0,17.3,12.0,54,35,11,30.17,30.07,7,1,0,0.00
2012-10-31,68.9,48.8,31.0,25.0,18.4,15.0,57,33,14,30.13,30.02,4,1,0,0.00
2012-11-1,65.4,46.6,29.0,28.0,18.5,12.0,62,37,13,30.08,29.99,5,1,0,0.00
2012-11-2,62.4,46.8,35.6,31.0,25.9,21.0,63,46,27,30.06,29.95,9,1,0,0.00
2012-11-3,64.3,46.4,33.2,34.0,27.3,24.0,72,51,28,30.19,30.06,6,1,0,0.00
2012-11-4,65.8,48.5,31.1,27.0,21.0,15.0,69,39,15,30.25,30.18,6,1,0,0.00
2012-11-5,67.4,54.5,40.4,26.0,23.3,17.0,49,31,21,30.24,30.10,10,2,0,0.00
2012-11-6,72.2,56.0,39.5,29.0,25.5,22.0,49,32,18,30.14,30.02,10,1,0,0.00
2012-11-7,68.1,49.0,33.0,33.0,23.1,20.0,62,40,17,30.11,29.98,7,1,0,0.00
2012-11-8,61.9,43.8,28.3,42.0,29.5,20.0,93,63,25,30.00,29.89,14,2,0,0.36
2012-11-9,49.0,43.7,32.8,43.0,39.0,30.0,93,84,71,29.89,29.61,20,4,0,0.28
2012-11-10,35.6,28.3,17.1,30.0,19.1,12.0,92,71,40,30.13,29.64,10,2,0,0.00
2012-11-11,40.2,24.9,9.6,18.0,12.1,6.0,87,62,28,30.55,30.14,5,0,0,0.11
2012-11-12,46.8,34.6,28.0,10.0,5.8,0.0,44,31,17,30.54,30.35,11,2,0,0.04
2012-11-13,52.9,38.4,27.5,13.0,8.8,4.0,51,31,18,30.36,30.25,9,2,0,0.00
2012-11-14,59.5,40.9,25.9,24.0,15.9,10.0,59,40,14,30.31,30.17,4,1,0,0.00
2012-11-15,58.8,42.8,30.6,29.0,20.2,14.0,62,43,19,30.25,30.18,2,0,0,0.00
2012-11-16,59.1,45.1,28.9,32.0,24.7,21.0,73,49,24,30.20,30.07,6,1,0,0.00
2012-11-17,56.5,42.4,27.7,38.0,29.9,21.0,77,63,44,30.20,30.09,9,1,0,0.00
2012-11-18,54.2,40.6,28.5,38.0,32.5,26.0,92,74,50,30.23,30.06,5,0,0,0.00
2012-11-19,56.6,39.2,26.2,37.0,26.7,21.0,92,65,29,30.36,30.23,4,0,0,0.00
2012-11-20,62.8,43.1,29.8,30.0,25.1,22.0,73,53,25,30.34,30.15,7,1,0,0.00
2012-11-21,60.8,41.2,27.0,35.0,26.7,22.0,86,61,28,30.18,30.08,5,1,0,0.00
2012-11-22,62.7,45.2,29.2,30.0,24.5,20.0,86,51,20,30.28,30.14,3,1,0,0.00
2012-11-23,62.2,48.5,34.1,25.0,22.5,21.0,60,37,21,30.27,30.20,5,1,0,0.00
2012-11-24,63.7,44.2,29.9,29.0,23.5,21.0,71,48,20,30.27,30.10,4,0,0,0.00
2012-11-25,59.9,42.1,29.7,33.0,24.3,21.0,74,53,27,30.09,29.95,4,1,0,0.00
2012-11-26,59.4,41.5,27.9,31.0,21.9,18.0,77,51,20,30.27,30.04,3,1,0,0.00
2012-11-27,59.6,42.6,29.8,28.0,22.4,15.0,66,47,25,30.32,30.22,6,0,0,0.00
2012-11-28,59.4,43.0,29.0,33.0,26.9,23.0,79,57,31,30.28,30.14,6,1,0,0.00
2012-11-29,56.8,39.8,26.7,32.0,27.5,23.0,87,65,36,30.24,30.17,4,0,0,0.00
2012-11-30,53.4,38.3,26.0,39.0,31.6,23.0,91,78,56,30.25,30.16,4,0,0,0.00
2012-12-1,58.0,39.6,26.6,36.0,27.2,24.0,92,67,29,30.23,30.12,5,0,0,0.00
2012-12-2,55.1,40.4,25.4,35.0,30.2,22.0,90,69,45,30.18,30.07,6,1,0,0.00
2012-12-3,53.5,42.2,33.2,40.0,35.1,30.0,90,77,54,30.25,30.06,4,0,0,0.00
2012-12-4,62.6,44.5,30.2,34.0,27.6,20.0,90,57,24,30.38,30.24,3,0,0,0.00
2012-12-5,61.9,43.3,30.8,32.0,22.3,18.0,69,47,22,30.27,30.06,5,0,0,0.00
2012-12-6,55.5,38.7,27.2,33.0,26.2,21.0,79,63,40,30.05,29.93,8,0,0,0.00
2012-12-7,53.9,37.9,27.7,34.0,26.7,22.0,88,67,38,30.04,29.96,4,1,0,0.00
2012-12-8,48.4,30.2,22.8,31.0,23.8,20.0,89,79,43,30.05,29.99,5,1,0,0.00
2012-12-30,33.8,27.7,25.2,24.0,22.5,19.0,92,82,54,29.97,29.93,4,1,0,0.00
2012-12-31,27.7,24.6,21.6,23.0,21.9,19.0,92,89,80,30.28,29.96,4,0,0,0.00
2013-1-1,35.6,22.5,9.8,22.0,14.7,7.0,91,73,49,30.39,30.27,6,1,0,0.13